There are multiple Weather-warnings   Click here for more information


Meteo18 Weather Cam more information Meteo18 Weather Cam


warning for Thunderstorms more information blitzortung!


Rain radar more information rain snow radar


Visit our other weather sites:

Template documentation
and downloads

And another site



Weather Underground History page Text

Daily Summary for May 23, 2017 Units:  Both    English   Metric
« Previous Day
Next Day »
Daily Weekly Monthly Yearly Custom
  High: Low: Average:
Temperature: 75.4 °F /  24.1 °C 53.1 °F /  11.7 °C 65.5 °F /  18.6 °C
Dew Point: 61.9 °F /  16.6 °C 51.6 °F /  10.9 °C 57.6 °F /  14.2 °C
Humidity: 96 % 52 % 77 %
Wind Speed: 9 mph /  14.5 km/h - 1.9 mph /  3 km/h
Wind Gust: 13 mph /  20.9 km/h - -
Wind:- - West
Pressure: 30.3 in /  1024.9 hPa 30.1 in /  1018.8 hPa -
Precipitation: 0 in /  0.0 mm    
Historical Graphs
 
 
Tabular Data for May 23, 2017
Time Temperature Dew Point Pressure Wind Wind Speed Wind Gust Humidity Rainfall Rate (Hourly)
00:02 65.1 °F /  18.4 °C 57.7 °F /  14.3 °C 30.1 in /  1018.8 hPa WNW 1 mph /  1.6 km/h 5 mph /  8.0 km/h 77 % 0 in /  0.0 mm
00:07 64.9 °F /  18.3 °C 57.9 °F /  14.4 °C 30.1 in /  1018.8 hPa Calm   4 mph /  6.4 km/h 78 % 0 in /  0.0 mm
00:12 64.9 °F /  18.3 °C 57.9 °F /  14.4 °C 30.1 in /  1018.8 hPa Calm   4 mph /  6.4 km/h 78 % 0 in /  0.0 mm
00:17 64.6 °F /  18.1 °C 57.6 °F /  14.2 °C 30.1 in /  1018.8 hPa Calm   3 mph /  4.8 km/h 78 % 0 in /  0.0 mm
00:22 64.4 °F /  18.0 °C 57.7 °F /  14.3 °C 30.1 in /  1018.8 hPa WNW 1 mph /  1.6 km/h 3 mph /  4.8 km/h 79 % 0 in /  0.0 mm
00:27 64.2 °F /  17.9 °C 57.6 °F /  14.2 °C 30.1 in /  1018.8 hPa Calm   3 mph /  4.8 km/h 79 % 0 in /  0.0 mm
00:32 64.2 °F /  17.9 °C 57.6 °F /  14.2 °C 30.1 in /  1018.8 hPa WNW 1 mph /  1.6 km/h 3 mph /  4.8 km/h 79 % 0 in /  0.0 mm
00:37 64 °F /  17.8 °C 57.4 °F /  14.1 °C 30.1 in /  1019.2 hPa North 1 mph /  1.6 km/h 3 mph /  4.8 km/h 79 % 0 in /  0.0 mm
00:42 63.9 °F /  17.7 °C 57.6 °F /  14.2 °C 30.1 in /  1019.2 hPa WNW 1 mph /  1.6 km/h 3 mph /  4.8 km/h 80 % 0 in /  0.0 mm
00:52 63.7 °F /  17.6 °C 57.4 °F /  14.1 °C 30.1 in /  1019.2 hPa WNW 2 mph /  3.2 km/h 3 mph /  4.8 km/h 80 % 0 in /  0.0 mm
00:57 63.7 °F /  17.6 °C 57.4 °F /  14.1 °C 30.1 in /  1019.2 hPa WNW 1 mph /  1.6 km/h 3 mph /  4.8 km/h 80 % 0 in /  0.0 mm
01:02 63.5 °F /  17.5 °C 57.2 °F /  14.0 °C 30.1 in /  1019.2 hPa Calm   3 mph /  4.8 km/h 80 % 0 in /  0.0 mm
01:07 63 °F /  17.2 °C 57 °F /  13.9 °C 30.1 in /  1019.2 hPa Calm   3 mph /  4.8 km/h 81 % 0 in /  0.0 mm
01:12 62.4 °F /  16.9 °C 57.2 °F /  14.0 °C 30.1 in /  1019.2 hPa Calm   3 mph /  4.8 km/h 83 % 0 in /  0.0 mm
01:17 62.4 °F /  16.9 °C 57.2 °F /  14.0 °C 30.1 in /  1019.2 hPa Calm   1 mph /  1.6 km/h 83 % 0 in /  0.0 mm
01:22 62.2 °F /  16.8 °C 57 °F /  13.9 °C 30.1 in /  1019.2 hPa Calm   1 mph /  1.6 km/h 83 % 0 in /  0.0 mm
01:32 61.7 °F /  16.5 °C 56.8 °F /  13.8 °C 30.1 in /  1019.2 hPa Calm   1 mph /  1.6 km/h 84 % 0 in /  0.0 mm
01:42 61.2 °F /  16.2 °C 56.7 °F /  13.7 °C 30.1 in /  1019.2 hPa Calm     85 % 0 in /  0.0 mm
01:47 60.8 °F /  16.0 °C 56.3 °F /  13.5 °C 30.1 in /  1019.2 hPa Calm     85 % 0 in /  0.0 mm
01:52 60.6 °F /  15.9 °C 56.5 °F /  13.6 °C 30.1 in /  1019.2 hPa Calm     86 % 0 in /  0.0 mm
01:57 60.4 °F /  15.8 °C 56.3 °F /  13.5 °C 30.1 in /  1019.2 hPa Calm     86 % 0 in /  0.0 mm
02:02 60.6 °F /  15.9 °C 56.7 °F /  13.7 °C 30.1 in /  1019.2 hPa Calm     87 % 0 in /  0.0 mm
02:12 60.4 °F /  15.8 °C 56.5 °F /  13.6 °C 30.1 in /  1019.2 hPa Calm     87 % 0 in /  0.0 mm
02:17 60.4 °F /  15.8 °C 56.5 °F /  13.6 °C 30.1 in /  1019.2 hPa Calm     87 % 0 in /  0.0 mm
02:22 60.4 °F /  15.8 °C 56.5 °F /  13.6 °C 30.1 in /  1018.8 hPa WSW 2 mph /  3.2 km/h   87 % 0 in /  0.0 mm
02:32 60.3 °F /  15.7 °C 56.3 °F /  13.5 °C 30.1 in /  1019.2 hPa SSW 1 mph /  1.6 km/h 2 mph /  3.2 km/h 87 % 0 in /  0.0 mm
02:37 60.1 °F /  15.6 °C 56.1 °F /  13.4 °C 30.1 in /  1019.2 hPa Calm   2 mph /  3.2 km/h 87 % 0 in /  0.0 mm
02:47 59.5 °F /  15.3 °C 55.6 °F /  13.1 °C 30.1 in /  1019.2 hPa Calm   1 mph /  1.6 km/h 87 % 0 in /  0.0 mm
02:52 59.2 °F /  15.1 °C 55.6 °F /  13.1 °C 30.1 in /  1019.2 hPa Calm   1 mph /  1.6 km/h 88 % 0 in /  0.0 mm
02:57 58.8 °F /  14.9 °C 55.6 °F /  13.1 °C 30.1 in /  1019.2 hPa Calm   1 mph /  1.6 km/h 89 % 0 in /  0.0 mm
03:02 58.6 °F /  14.8 °C 55.8 °F /  13.2 °C 30.1 in /  1019.2 hPa Calm   1 mph /  1.6 km/h 90 % 0 in /  0.0 mm
03:12 58.6 °F /  14.8 °C 55.8 °F /  13.2 °C 30.1 in /  1019.2 hPa Calm   1 mph /  1.6 km/h 90 % 0 in /  0.0 mm
03:17 58.5 °F /  14.7 °C 55.6 °F /  13.1 °C 30.1 in /  1019.2 hPa Calm     90 % 0 in /  0.0 mm
03:22 58.5 °F /  14.7 °C 55.6 °F /  13.1 °C 30.1 in /  1019.2 hPa Calm     90 % 0 in /  0.0 mm
03:27 58.3 °F /  14.6 °C 55.6 °F /  13.1 °C 30.1 in /  1019.2 hPa Calm   1 mph /  1.6 km/h 91 % 0 in /  0.0 mm
03:32 57.9 °F /  14.4 °C 55.2 °F /  12.9 °C 30.1 in /  1019.2 hPa Calm   1 mph /  1.6 km/h 91 % 0 in /  0.0 mm
03:42 57.4 °F /  14.1 °C 54.9 °F /  12.7 °C 30.1 in /  1019.2 hPa Calm   1 mph /  1.6 km/h 91 % 0 in /  0.0 mm
03:47 57.4 °F /  14.1 °C 55 °F /  12.8 °C 30.1 in /  1019.2 hPa Calm   1 mph /  1.6 km/h 92 % 0 in /  0.0 mm
03:52 57 °F /  13.9 °C 54.7 °F /  12.6 °C 30.1 in /  1019.2 hPa Calm   1 mph /  1.6 km/h 92 % 0 in /  0.0 mm
04:02 56.7 °F /  13.7 °C 54.3 °F /  12.4 °C 30.1 in /  1019.2 hPa Calm   1 mph /  1.6 km/h 92 % 0 in /  0.0 mm
04:07 56.1 °F /  13.4 °C 53.8 °F /  12.1 °C 30.1 in /  1019.2 hPa Calm   1 mph /  1.6 km/h 92 % 0 in /  0.0 mm
04:12 55.9 °F /  13.3 °C 53.6 °F /  12.0 °C 30.1 in /  1019.2 hPa Calm   1 mph /  1.6 km/h 92 % 0 in /  0.0 mm
04:17 55.8 °F /  13.2 °C 53.8 °F /  12.1 °C 30.1 in /  1019.2 hPa Calm   1 mph /  1.6 km/h 93 % 0 in /  0.0 mm
04:22 55.8 °F /  13.2 °C 53.8 °F /  12.1 °C 30.1 in /  1019.2 hPa Calm   1 mph /  1.6 km/h 93 % 0 in /  0.0 mm
04:27 55.6 °F /  13.1 °C 53.6 °F /  12.0 °C 30.1 in /  1019.5 hPa Calm   1 mph /  1.6 km/h 93 % 0 in /  0.0 mm
04:32 55.6 °F /  13.1 °C 53.6 °F /  12.0 °C 30.1 in /  1019.5 hPa Calm   1 mph /  1.6 km/h 93 % 0 in /  0.0 mm
04:37 55.2 °F /  12.9 °C 53.2 °F /  11.8 °C 30.1 in /  1019.5 hPa Calm   1 mph /  1.6 km/h 93 % 0 in /  0.0 mm
04:42 55.2 °F /  12.9 °C 53.6 °F /  12.0 °C 30.1 in /  1019.5 hPa Calm   1 mph /  1.6 km/h 94 % 0 in /  0.0 mm
04:47 54.7 °F /  12.6 °C 52.7 °F /  11.5 °C 30.1 in /  1019.5 hPa Calm   1 mph /  1.6 km/h 93 % 0 in /  0.0 mm
04:52 54.7 °F /  12.6 °C 53.1 °F /  11.7 °C 30.1 in /  1019.5 hPa Calm   1 mph /  1.6 km/h 94 % 0 in /  0.0 mm
04:57 54.7 °F /  12.6 °C 53.1 °F /  11.7 °C 30.1 in /  1019.5 hPa Calm   1 mph /  1.6 km/h 94 % 0 in /  0.0 mm
05:02 54.5 °F /  12.5 °C 52.9 °F /  11.6 °C 30.1 in /  1019.5 hPa Calm   1 mph /  1.6 km/h 94 % 0 in /  0.0 mm
05:12 54.5 °F /  12.5 °C 52.9 °F /  11.6 °C 30.1 in /  1019.5 hPa Calm     94 % 0 in /  0.0 mm
05:17 54.3 °F /  12.4 °C 52.7 °F /  11.5 °C 30.1 in /  1019.5 hPa Calm     94 % 0 in /  0.0 mm
05:22 54 °F /  12.2 °C 52.3 °F /  11.3 °C 30.1 in /  1019.5 hPa Calm     94 % 0 in /  0.0 mm
05:32 53.8 °F /  12.1 °C 52.3 °F /  11.3 °C 30.1 in /  1019.5 hPa Calm     95 % 0 in /  0.0 mm
05:42 54 °F /  12.2 °C 52.5 °F /  11.4 °C 30.1 in /  1019.9 hPa Calm   2 mph /  3.2 km/h 95 % 0 in /  0.0 mm
05:47 54.1 °F /  12.3 °C 52.7 °F /  11.5 °C 30.1 in /  1019.9 hPa South 2 mph /  3.2 km/h 2 mph /  3.2 km/h 95 % 0 in /  0.0 mm
05:52 54 °F /  12.2 °C 52.5 °F /  11.4 °C 30.1 in /  1019.9 hPa Calm   2 mph /  3.2 km/h 95 % 0 in /  0.0 mm
06:02 53.4 °F /  11.9 °C 52 °F /  11.1 °C 30.1 in /  1019.9 hPa SSE 1 mph /  1.6 km/h 2 mph /  3.2 km/h 95 % 0 in /  0.0 mm
06:07 53.2 °F /  11.8 °C 51.8 °F /  11.0 °C 30.1 in /  1019.9 hPa South 2 mph /  3.2 km/h 2 mph /  3.2 km/h 95 % 0 in /  0.0 mm
06:12 53.1 °F /  11.7 °C 51.6 °F /  10.9 °C 30.1 in /  1019.9 hPa Calm   2 mph /  3.2 km/h 95 % 0 in /  0.0 mm
06:17 53.1 °F /  11.7 °C 51.6 °F /  10.9 °C 30.1 in /  1019.9 hPa Calm   2 mph /  3.2 km/h 95 % 0 in /  0.0 mm
06:22 53.1 °F /  11.7 °C 51.6 °F /  10.9 °C 30.1 in /  1019.9 hPa Calm   2 mph /  3.2 km/h 95 % 0 in /  0.0 mm
06:27 53.1 °F /  11.7 °C 52 °F /  11.1 °C 30.1 in /  1019.9 hPa Calm   2 mph /  3.2 km/h 96 % 0 in /  0.0 mm
06:32 53.1 °F /  11.7 °C 51.6 °F /  10.9 °C 30.1 in /  1019.9 hPa Calm   2 mph /  3.2 km/h 95 % 0 in /  0.0 mm
06:37 53.1 °F /  11.7 °C 52 °F /  11.1 °C 30.1 in /  1020.2 hPa Calm   1 mph /  1.6 km/h 96 % 0 in /  0.0 mm
06:42 53.4 °F /  11.9 °C 52.3 °F /  11.3 °C 30.1 in /  1020.2 hPa Calm   1 mph /  1.6 km/h 96 % 0 in /  0.0 mm
06:47 53.8 °F /  12.1 °C 52.7 °F /  11.5 °C 30.1 in /  1020.2 hPa Calm     96 % 0 in /  0.0 mm
06:52 53.8 °F /  12.1 °C 52.7 °F /  11.5 °C 30.1 in /  1020.2 hPa Calm     96 % 0 in /  0.0 mm
07:02 53.8 °F /  12.1 °C 52.7 °F /  11.5 °C 30.1 in /  1020.5 hPa Calm   1 mph /  1.6 km/h 96 % 0 in /  0.0 mm
07:12 54.1 °F /  12.3 °C 53.1 °F /  11.7 °C 30.1 in /  1020.5 hPa Calm   1 mph /  1.6 km/h 96 % 0 in /  0.0 mm
07:17 54.1 °F /  12.3 °C 53.1 °F /  11.7 °C 30.1 in /  1020.5 hPa Calm   1 mph /  1.6 km/h 96 % 0 in /  0.0 mm
07:22 54.5 °F /  12.5 °C 53.4 °F /  11.9 °C 30.2 in /  1020.9 hPa Calm   1 mph /  1.6 km/h 96 % 0 in /  0.0 mm
07:32 55.2 °F /  12.9 °C 54.1 °F /  12.3 °C 30.2 in /  1020.9 hPa South 1 mph /  1.6 km/h 1 mph /  1.6 km/h 96 % 0 in /  0.0 mm
07:42 56.5 °F /  13.6 °C 55.4 °F /  13.0 °C 30.2 in /  1020.9 hPa SSW 3 mph /  4.8 km/h 3 mph /  4.8 km/h 96 % 0 in /  0.0 mm
07:47 56.8 °F /  13.8 °C 55.8 °F /  13.2 °C 30.2 in /  1021.2 hPa SSW 3 mph /  4.8 km/h 5 mph /  8.0 km/h 96 % 0 in /  0.0 mm
07:52 57.4 °F /  14.1 °C 56.3 °F /  13.5 °C 30.2 in /  1021.2 hPa SW 2 mph /  3.2 km/h 5 mph /  8.0 km/h 96 % 0 in /  0.0 mm
07:57 57.7 °F /  14.3 °C 56.7 °F /  13.7 °C 30.2 in /  1021.2 hPa SW 2 mph /  3.2 km/h 5 mph /  8.0 km/h 96 % 0 in /  0.0 mm
08:02 58.5 °F /  14.7 °C 57 °F /  13.9 °C 30.2 in /  1021.2 hPa WSW 2 mph /  3.2 km/h 5 mph /  8.0 km/h 95 % 0 in /  0.0 mm
08:12 59.5 °F /  15.3 °C 57.7 °F /  14.3 °C 30.2 in /  1021.2 hPa SW 3 mph /  4.8 km/h 5 mph /  8.0 km/h 94 % 0 in /  0.0 mm
08:17 59.9 °F /  15.5 °C 57.9 °F /  14.4 °C 30.2 in /  1021.6 hPa South 2 mph /  3.2 km/h 3 mph /  4.8 km/h 93 % 0 in /  0.0 mm
08:22 60.3 °F /  15.7 °C 57.9 °F /  14.4 °C 30.2 in /  1021.6 hPa SW 3 mph /  4.8 km/h 3 mph /  4.8 km/h 92 % 0 in /  0.0 mm
08:32 61 °F /  16.1 °C 58.3 °F /  14.6 °C 30.2 in /  1021.6 hPa Calm   4 mph /  6.4 km/h 91 % 0 in /  0.0 mm
08:42 61.5 °F /  16.4 °C 58.3 °F /  14.6 °C 30.2 in /  1021.6 hPa SE 2 mph /  3.2 km/h 5 mph /  8.0 km/h 89 % 0 in /  0.0 mm
08:47 62.1 °F /  16.7 °C 58.8 °F /  14.9 °C 30.2 in /  1021.6 hPa South 1 mph /  1.6 km/h 5 mph /  8.0 km/h 89 % 0 in /  0.0 mm
08:52 62.4 °F /  16.9 °C 59.2 °F /  15.1 °C 30.2 in /  1021.6 hPa South 1 mph /  1.6 km/h 5 mph /  8.0 km/h 89 % 0 in /  0.0 mm
08:57 63.1 °F /  17.3 °C 59.2 °F /  15.1 °C 30.2 in /  1021.6 hPa Calm   4 mph /  6.4 km/h 87 % 0 in /  0.0 mm
09:02 63.3 °F /  17.4 °C 59 °F /  15.0 °C 30.2 in /  1021.9 hPa SSE 2 mph /  3.2 km/h 4 mph /  6.4 km/h 86 % 0 in /  0.0 mm
09:12 63.3 °F /  17.4 °C 59.4 °F /  15.2 °C 30.2 in /  1021.9 hPa SSW 2 mph /  3.2 km/h 4 mph /  6.4 km/h 87 % 0 in /  0.0 mm
09:22 63.5 °F /  17.5 °C 59.5 °F /  15.3 °C 30.2 in /  1021.9 hPa West 2 mph /  3.2 km/h 5 mph /  8.0 km/h 87 % 0 in /  0.0 mm
09:32 63.7 °F /  17.6 °C 59.4 °F /  15.2 °C 30.2 in /  1022.2 hPa SW 4 mph /  6.4 km/h 7 mph /  11.3 km/h 86 % 0 in /  0.0 mm
09:42 64 °F /  17.8 °C 59.7 °F /  15.4 °C 30.2 in /  1022.2 hPa SSW 4 mph /  6.4 km/h 6 mph /  9.7 km/h 86 % 0 in /  0.0 mm
09:47 63.9 °F /  17.7 °C 59.2 °F /  15.1 °C 30.2 in /  1022.2 hPa SW 4 mph /  6.4 km/h 8 mph /  12.9 km/h 85 % 0 in /  0.0 mm
09:52 63.9 °F /  17.7 °C 59.5 °F /  15.3 °C 30.2 in /  1022.2 hPa SSW 4 mph /  6.4 km/h 8 mph /  12.9 km/h 86 % 0 in /  0.0 mm
09:57 64.2 °F /  17.9 °C 59.5 °F /  15.3 °C 30.2 in /  1022.2 hPa SSW 5 mph /  8.0 km/h 9 mph /  14.5 km/h 85 % 0 in /  0.0 mm
10:02 64.2 °F /  17.9 °C 59.9 °F /  15.5 °C 30.2 in /  1022.2 hPa South 5 mph /  8.0 km/h 9 mph /  14.5 km/h 86 % 0 in /  0.0 mm
10:12 64.2 °F /  17.9 °C 59.5 °F /  15.3 °C 30.2 in /  1022.2 hPa SW 9 mph /  14.5 km/h 9 mph /  14.5 km/h 85 % 0 in /  0.0 mm
10:17 64.2 °F /  17.9 °C 59.9 °F /  15.5 °C 30.2 in /  1022.2 hPa SSW 8 mph /  12.9 km/h 10 mph /  16.1 km/h 86 % 0 in /  0.0 mm
10:22 64 °F /  17.8 °C 59.4 °F /  15.2 °C 30.2 in /  1022.2 hPa SSW 7 mph /  11.3 km/h 10 mph /  16.1 km/h 85 % 0 in /  0.0 mm
10:32 64.6 °F /  18.1 °C 59.9 °F /  15.5 °C 30.2 in /  1022.6 hPa SSW 8 mph /  12.9 km/h 11 mph /  17.7 km/h 85 % 0 in /  0.0 mm
10:42 64.9 °F /  18.3 °C 60.3 °F /  15.7 °C 30.2 in /  1022.6 hPa SW 6 mph /  9.7 km/h 12 mph /  19.3 km/h 85 % 0 in /  0.0 mm
10:52 64.8 °F /  18.2 °C 59.9 °F /  15.5 °C 30.2 in /  1022.6 hPa SSW 6 mph /  9.7 km/h 12 mph /  19.3 km/h 84 % 0 in /  0.0 mm
11:02 64.9 °F /  18.3 °C 59.7 °F /  15.4 °C 30.2 in /  1022.6 hPa SW 6 mph /  9.7 km/h 13 mph /  20.9 km/h 83 % 0 in /  0.0 mm
11:07 65.1 °F /  18.4 °C 60.1 °F /  15.6 °C 30.2 in /  1022.6 hPa SSW 5 mph /  8.0 km/h 12 mph /  19.3 km/h 84 % 0 in /  0.0 mm
11:12 65.5 °F /  18.6 °C 60.3 °F /  15.7 °C 30.2 in /  1022.6 hPa SSW 5 mph /  8.0 km/h 12 mph /  19.3 km/h 83 % 0 in /  0.0 mm
11:17 65.8 °F /  18.8 °C 60.6 °F /  15.9 °C 30.2 in /  1022.9 hPa SW 6 mph /  9.7 km/h 12 mph /  19.3 km/h 83 % 0 in /  0.0 mm
11:22 66.4 °F /  19.1 °C 61 °F /  16.1 °C 30.2 in /  1022.9 hPa West 3 mph /  4.8 km/h 12 mph /  19.3 km/h 83 % 0 in /  0.0 mm
11:32 66.7 °F /  19.3 °C 61 °F /  16.1 °C 30.2 in /  1022.9 hPa West 5 mph /  8.0 km/h 10 mph /  16.1 km/h 82 % 0 in /  0.0 mm
11:42 66.7 °F /  19.3 °C 60.8 °F /  16.0 °C 30.2 in /  1022.9 hPa South 6 mph /  9.7 km/h 11 mph /  17.7 km/h 81 % 0 in /  0.0 mm
11:52 67.6 °F /  19.8 °C 61.2 °F /  16.2 °C 30.2 in /  1023.2 hPa West 3 mph /  4.8 km/h 11 mph /  17.7 km/h 80 % 0 in /  0.0 mm
12:02 68.4 °F /  20.2 °C 61.5 °F /  16.4 °C 30.2 in /  1023.2 hPa West 4 mph /  6.4 km/h 10 mph /  16.1 km/h 79 % 0 in /  0.0 mm
12:12 69.3 °F /  20.7 °C 61.3 °F /  16.3 °C 30.2 in /  1022.9 hPa WSW 5 mph /  8.0 km/h 11 mph /  17.7 km/h 76 % 0 in /  0.0 mm
12:17 69.4 °F /  20.8 °C 61.5 °F /  16.4 °C 30.2 in /  1022.9 hPa West 2 mph /  3.2 km/h 11 mph /  17.7 km/h 76 % 0 in /  0.0 mm
12:22 69.4 °F /  20.8 °C 61.5 °F /  16.4 °C 30.2 in /  1023.2 hPa SSW 4 mph /  6.4 km/h 11 mph /  17.7 km/h 76 % 0 in /  0.0 mm
12:32 69.8 °F /  21.0 °C 61.9 °F /  16.6 °C 30.2 in /  1022.9 hPa West 3 mph /  4.8 km/h 10 mph /  16.1 km/h 76 % 0 in /  0.0 mm
12:42 70.2 °F /  21.2 °C 61.9 °F /  16.6 °C 30.2 in /  1022.9 hPa WNW 1 mph /  1.6 km/h 10 mph /  16.1 km/h 75 % 0 in /  0.0 mm
12:47 70.3 °F /  21.3 °C 61.3 °F /  16.3 °C 30.2 in /  1022.9 hPa NW 3 mph /  4.8 km/h 10 mph /  16.1 km/h 73 % 0 in /  0.0 mm
12:52 70 °F /  21.1 °C 61 °F /  16.1 °C 30.2 in /  1022.9 hPa WNW 2 mph /  3.2 km/h 10 mph /  16.1 km/h 73 % 0 in /  0.0 mm
13:02 70.9 °F /  21.6 °C 60.3 °F /  15.7 °C 30.2 in /  1022.9 hPa West 4 mph /  6.4 km/h 8 mph /  12.9 km/h 69 % 0 in /  0.0 mm
13:07 70.9 °F /  21.6 °C 60.6 °F /  15.9 °C 30.2 in /  1023.2 hPa WNW 5 mph /  8.0 km/h 12 mph /  19.3 km/h 70 % 0 in /  0.0 mm
13:17 71.8 °F /  22.1 °C 60.6 °F /  15.9 °C 30.2 in /  1023.2 hPa WSW 4 mph /  6.4 km/h 12 mph /  19.3 km/h 68 % 0 in /  0.0 mm
13:22 72.3 °F /  22.4 °C 61.2 °F /  16.2 °C 30.2 in /  1023.2 hPa West 3 mph /  4.8 km/h 12 mph /  19.3 km/h 68 % 0 in /  0.0 mm
13:27 72.7 °F /  22.6 °C 61.2 °F /  16.2 °C 30.2 in /  1023.2 hPa NW 1 mph /  1.6 km/h 9 mph /  14.5 km/h 67 % 0 in /  0.0 mm
13:32 72.5 °F /  22.5 °C 60.4 °F /  15.8 °C 30.2 in /  1023.2 hPa WNW 2 mph /  3.2 km/h 9 mph /  14.5 km/h 66 % 0 in /  0.0 mm
13:37 71.8 °F /  22.1 °C 59.4 °F /  15.2 °C 30.2 in /  1023.2 hPa Calm   9 mph /  14.5 km/h 65 % 0 in /  0.0 mm
13:42 72.1 °F /  22.3 °C 61 °F /  16.1 °C 30.2 in /  1023.2 hPa WNW 3 mph /  4.8 km/h 9 mph /  14.5 km/h 68 % 0 in /  0.0 mm
13:47 72.7 °F /  22.6 °C 60.6 °F /  15.9 °C 30.2 in /  1023.2 hPa WSW 5 mph /  8.0 km/h 8 mph /  12.9 km/h 66 % 0 in /  0.0 mm
13:52 72.7 °F /  22.6 °C 60.3 °F /  15.7 °C 30.2 in /  1023.2 hPa WSW 7 mph /  11.3 km/h 8 mph /  12.9 km/h 65 % 0 in /  0.0 mm
13:57 72.3 °F /  22.4 °C 59.9 °F /  15.5 °C 30.2 in /  1022.9 hPa WSW 2 mph /  3.2 km/h 9 mph /  14.5 km/h 65 % 0 in /  0.0 mm
14:02 72.3 °F /  22.4 °C 60.8 °F /  16.0 °C 30.2 in /  1023.2 hPa West 2 mph /  3.2 km/h 9 mph /  14.5 km/h 67 % 0 in /  0.0 mm
14:12 72.7 °F /  22.6 °C 61.2 °F /  16.2 °C 30.2 in /  1023.2 hPa WSW 1 mph /  1.6 km/h 9 mph /  14.5 km/h 67 % 0 in /  0.0 mm
14:17 72.3 °F /  22.4 °C 60.3 °F /  15.7 °C 30.2 in /  1023.2 hPa NNE 2 mph /  3.2 km/h 7 mph /  11.3 km/h 66 % 0 in /  0.0 mm
14:22 72.7 °F /  22.6 °C 61.2 °F /  16.2 °C 30.2 in /  1023.2 hPa NNW 3 mph /  4.8 km/h 7 mph /  11.3 km/h 67 % 0 in /  0.0 mm
14:27 72.3 °F /  22.4 °C 60.8 °F /  16.0 °C 30.2 in /  1022.9 hPa WNW 1 mph /  1.6 km/h 7 mph /  11.3 km/h 67 % 0 in /  0.0 mm
14:32 72.7 °F /  22.6 °C 60.6 °F /  15.9 °C 30.2 in /  1022.9 hPa West 3 mph /  4.8 km/h 7 mph /  11.3 km/h 66 % 0 in /  0.0 mm
14:37 72.3 °F /  22.4 °C 60.3 °F /  15.7 °C 30.2 in /  1022.9 hPa WNW 4 mph /  6.4 km/h 8 mph /  12.9 km/h 66 % 0 in /  0.0 mm
14:42 72.3 °F /  22.4 °C 60.3 °F /  15.7 °C 30.2 in /  1022.9 hPa West 1 mph /  1.6 km/h 8 mph /  12.9 km/h 66 % 0 in /  0.0 mm
14:52 73.4 °F /  23.0 °C 59.2 °F /  15.1 °C 30.2 in /  1022.9 hPa SW 3 mph /  4.8 km/h 7 mph /  11.3 km/h 61 % 0 in /  0.0 mm
14:57 73.8 °F /  23.2 °C 59 °F /  15.0 °C 30.2 in /  1022.9 hPa SW 4 mph /  6.4 km/h 10 mph /  16.1 km/h 60 % 0 in /  0.0 mm
15:02 74.1 °F /  23.4 °C 61.2 °F /  16.2 °C 30.2 in /  1022.9 hPa WNW 3 mph /  4.8 km/h 10 mph /  16.1 km/h 64 % 0 in /  0.0 mm
15:12 74.1 °F /  23.4 °C 59.7 °F /  15.4 °C 30.2 in /  1023.2 hPa West 5 mph /  8.0 km/h 8 mph /  12.9 km/h 61 % 0 in /  0.0 mm
15:17 74.1 °F /  23.4 °C 59.7 °F /  15.4 °C 30.2 in /  1023.2 hPa SW 1 mph /  1.6 km/h 11 mph /  17.7 km/h 61 % 0 in /  0.0 mm
15:22 75 °F /  23.9 °C 60.6 °F /  15.9 °C 30.2 in /  1023.2 hPa WSW 1 mph /  1.6 km/h 11 mph /  17.7 km/h 61 % 0 in /  0.0 mm
15:27 75.4 °F /  24.1 °C 60.1 °F /  15.6 °C 30.2 in /  1023.2 hPa West 2 mph /  3.2 km/h 9 mph /  14.5 km/h 59 % 0 in /  0.0 mm
15:32 74.8 °F /  23.8 °C 60.4 °F /  15.8 °C 30.2 in /  1023.2 hPa NNW 1 mph /  1.6 km/h 9 mph /  14.5 km/h 61 % 0 in /  0.0 mm
15:37 74.5 °F /  23.6 °C 60.6 °F /  15.9 °C 30.2 in /  1023.2 hPa WNW 1 mph /  1.6 km/h 6 mph /  9.7 km/h 62 % 0 in /  0.0 mm
15:42 74.1 °F /  23.4 °C 60.3 °F /  15.7 °C 30.2 in /  1023.2 hPa WNW 5 mph /  8.0 km/h 6 mph /  9.7 km/h 62 % 0 in /  0.0 mm
15:47 73.6 °F /  23.1 °C 60.3 °F /  15.7 °C 30.2 in /  1023.2 hPa NW 3 mph /  4.8 km/h 7 mph /  11.3 km/h 63 % 0 in /  0.0 mm
15:52 73.2 °F /  22.9 °C 59.4 °F /  15.2 °C 30.2 in /  1023.2 hPa NW 4 mph /  6.4 km/h 7 mph /  11.3 km/h 62 % 0 in /  0.0 mm
15:57 73 °F /  22.8 °C 59.2 °F /  15.1 °C 30.2 in /  1023.2 hPa WNW 3 mph /  4.8 km/h 9 mph /  14.5 km/h 62 % 0 in /  0.0 mm
16:02 73.2 °F /  22.9 °C 59.9 °F /  15.5 °C 30.2 in /  1023.2 hPa NNE 3 mph /  4.8 km/h 9 mph /  14.5 km/h 63 % 0 in /  0.0 mm
16:07 73 °F /  22.8 °C 59.2 °F /  15.1 °C 30.2 in /  1023.2 hPa NNE 2 mph /  3.2 km/h 6 mph /  9.7 km/h 62 % 0 in /  0.0 mm
16:12 72.9 °F /  22.7 °C 59.9 °F /  15.5 °C 30.2 in /  1023.2 hPa West 1 mph /  1.6 km/h 6 mph /  9.7 km/h 64 % 0 in /  0.0 mm
16:17 72.5 °F /  22.5 °C 60.1 °F /  15.6 °C 30.2 in /  1023.2 hPa NW 2 mph /  3.2 km/h 7 mph /  11.3 km/h 65 % 0 in /  0.0 mm
16:22 72.9 °F /  22.7 °C 59.9 °F /  15.5 °C 30.2 in /  1023.2 hPa NNW 3 mph /  4.8 km/h 7 mph /  11.3 km/h 64 % 0 in /  0.0 mm
16:32 73.9 °F /  23.3 °C 61 °F /  16.1 °C 30.2 in /  1023.2 hPa NW 6 mph /  9.7 km/h 8 mph /  12.9 km/h 64 % 0 in /  0.0 mm
16:37 73.9 °F /  23.3 °C 59.2 °F /  15.1 °C 30.2 in /  1023.2 hPa WNW 2 mph /  3.2 km/h 10 mph /  16.1 km/h 60 % 0 in /  0.0 mm
16:42 74.7 °F /  23.7 °C 60.3 °F /  15.7 °C 30.2 in /  1023.2 hPa WSW 2 mph /  3.2 km/h 10 mph /  16.1 km/h 61 % 0 in /  0.0 mm
16:47 74.3 °F /  23.5 °C 60.4 °F /  15.8 °C 30.2 in /  1023.2 hPa WNW 1 mph /  1.6 km/h 8 mph /  12.9 km/h 62 % 0 in /  0.0 mm
16:52 74.5 °F /  23.6 °C 60.1 °F /  15.6 °C 30.2 in /  1023.2 hPa North 1 mph /  1.6 km/h 8 mph /  12.9 km/h 61 % 0 in /  0.0 mm
16:57 74.1 °F /  23.4 °C 60.3 °F /  15.7 °C 30.2 in /  1023.2 hPa NNW 2 mph /  3.2 km/h 7 mph /  11.3 km/h 62 % 0 in /  0.0 mm
17:02 74.5 °F /  23.6 °C 61 °F /  16.1 °C 30.2 in /  1023.2 hPa North 3 mph /  4.8 km/h 7 mph /  11.3 km/h 63 % 0 in /  0.0 mm
17:12 74.7 °F /  23.7 °C 61.2 °F /  16.2 °C 30.2 in /  1023.2 hPa North 4 mph /  6.4 km/h 8 mph /  12.9 km/h 63 % 0 in /  0.0 mm
17:17 74.5 °F /  23.6 °C 60.1 °F /  15.6 °C 30.2 in /  1023.2 hPa North 3 mph /  4.8 km/h 9 mph /  14.5 km/h 61 % 0 in /  0.0 mm
17:22 74.1 °F /  23.4 °C 59.7 °F /  15.4 °C 30.2 in /  1023.2 hPa North 6 mph /  9.7 km/h 9 mph /  14.5 km/h 61 % 0 in /  0.0 mm
17:27 74.5 °F /  23.6 °C 60.6 °F /  15.9 °C 30.2 in /  1023.2 hPa NW 2 mph /  3.2 km/h 12 mph /  19.3 km/h 62 % 0 in /  0.0 mm
17:32 74.7 °F /  23.7 °C 60.3 °F /  15.7 °C 30.2 in /  1023.2 hPa West 2 mph /  3.2 km/h 12 mph /  19.3 km/h 61 % 0 in /  0.0 mm
17:37 74.5 °F /  23.6 °C 59.7 °F /  15.4 °C 30.2 in /  1023.2 hPa NNW 3 mph /  4.8 km/h 12 mph /  19.3 km/h 60 % 0 in /  0.0 mm
17:42 74.5 °F /  23.6 °C 59.7 °F /  15.4 °C 30.2 in /  1023.2 hPa WNW 7 mph /  11.3 km/h 12 mph /  19.3 km/h 60 % 0 in /  0.0 mm
17:52 74.1 °F /  23.4 °C 58.5 °F /  14.7 °C 30.2 in /  1023.2 hPa NNW 3 mph /  4.8 km/h 9 mph /  14.5 km/h 58 % 0 in /  0.0 mm
17:57 74.1 °F /  23.4 °C 58.5 °F /  14.7 °C 30.2 in /  1023.2 hPa NW 1 mph /  1.6 km/h 9 mph /  14.5 km/h 58 % 0 in /  0.0 mm
18:02 74.5 °F /  23.6 °C 58.3 °F /  14.6 °C 30.2 in /  1023.2 hPa NE 3 mph /  4.8 km/h 9 mph /  14.5 km/h 57 % 0 in /  0.0 mm
18:07 74.5 °F /  23.6 °C 58.8 °F /  14.9 °C 30.2 in /  1023.2 hPa NW 2 mph /  3.2 km/h 9 mph /  14.5 km/h 58 % 0 in /  0.0 mm
18:12 74.5 °F /  23.6 °C 59.7 °F /  15.4 °C 30.2 in /  1023.2 hPa WNW 1 mph /  1.6 km/h 9 mph /  14.5 km/h 60 % 0 in /  0.0 mm
18:17 74.1 °F /  23.4 °C 58.8 °F /  14.9 °C 30.2 in /  1023.2 hPa NNW 4 mph /  6.4 km/h 11 mph /  17.7 km/h 59 % 0 in /  0.0 mm
18:22 73.9 °F /  23.3 °C 59.7 °F /  15.4 °C 30.2 in /  1023.2 hPa NNW 3 mph /  4.8 km/h 11 mph /  17.7 km/h 61 % 0 in /  0.0 mm
18:32 73.8 °F /  23.2 °C 59.9 °F /  15.5 °C 30.2 in /  1023.2 hPa WNW 1 mph /  1.6 km/h 10 mph /  16.1 km/h 62 % 0 in /  0.0 mm
18:37 73.8 °F /  23.2 °C 59 °F /  15.0 °C 30.2 in /  1023.2 hPa NNW 5 mph /  8.0 km/h 10 mph /  16.1 km/h 60 % 0 in /  0.0 mm
18:42 73.8 °F /  23.2 °C 59.9 °F /  15.5 °C 30.2 in /  1023.6 hPa NNW 5 mph /  8.0 km/h 10 mph /  16.1 km/h 62 % 0 in /  0.0 mm
18:47 73.9 °F /  23.3 °C 58.6 °F /  14.8 °C 30.2 in /  1023.2 hPa NW 4 mph /  6.4 km/h 9 mph /  14.5 km/h 59 % 0 in /  0.0 mm
18:52 73.8 °F /  23.2 °C 58.5 °F /  14.7 °C 30.2 in /  1023.2 hPa NNW 2 mph /  3.2 km/h 9 mph /  14.5 km/h 59 % 0 in /  0.0 mm
18:57 73.8 °F /  23.2 °C 58.1 °F /  14.5 °C 30.2 in /  1023.2 hPa NNW 4 mph /  6.4 km/h 12 mph /  19.3 km/h 58 % 0 in /  0.0 mm
19:02 73.6 °F /  23.1 °C 56.5 °F /  13.6 °C 30.2 in /  1023.2 hPa NW 3 mph /  4.8 km/h 12 mph /  19.3 km/h 55 % 0 in /  0.0 mm
19:07 73.2 °F /  22.9 °C 56.7 °F /  13.7 °C 30.2 in /  1023.6 hPa NW 2 mph /  3.2 km/h 9 mph /  14.5 km/h 56 % 0 in /  0.0 mm
19:12 73.2 °F /  22.9 °C 56.1 °F /  13.4 °C 30.2 in /  1023.6 hPa NW 3 mph /  4.8 km/h 9 mph /  14.5 km/h 55 % 0 in /  0.0 mm
19:17 73.2 °F /  22.9 °C 54.5 °F /  12.5 °C 30.2 in /  1023.6 hPa WNW 5 mph /  8.0 km/h 8 mph /  12.9 km/h 52 % 0 in /  0.0 mm
19:22 73.6 °F /  23.1 °C 55.4 °F /  13.0 °C 30.2 in /  1023.6 hPa NNW 3 mph /  4.8 km/h 8 mph /  12.9 km/h 53 % 0 in /  0.0 mm
19:32 72.9 °F /  22.7 °C 57.2 °F /  14.0 °C 30.2 in /  1023.6 hPa North 3 mph /  4.8 km/h 8 mph /  12.9 km/h 58 % 0 in /  0.0 mm
19:37 72.7 °F /  22.6 °C 57 °F /  13.9 °C 30.2 in /  1023.9 hPa NW 3 mph /  4.8 km/h 7 mph /  11.3 km/h 58 % 0 in /  0.0 mm
19:42 72.7 °F /  22.6 °C 57 °F /  13.9 °C 30.2 in /  1023.9 hPa WNW 1 mph /  1.6 km/h 7 mph /  11.3 km/h 58 % 0 in /  0.0 mm
19:52 72.9 °F /  22.7 °C 56.7 °F /  13.7 °C 30.2 in /  1023.6 hPa NNW 3 mph /  4.8 km/h 5 mph /  8.0 km/h 57 % 0 in /  0.0 mm
20:02 72.1 °F /  22.3 °C 57.6 °F /  14.2 °C 30.2 in /  1023.9 hPa NW 3 mph /  4.8 km/h 5 mph /  8.0 km/h 60 % 0 in /  0.0 mm
20:12 72 °F /  22.2 °C 58.3 °F /  14.6 °C 30.2 in /  1023.9 hPa NNW 2 mph /  3.2 km/h 6 mph /  9.7 km/h 62 % 0 in /  0.0 mm
20:17 72 °F /  22.2 °C 58.3 °F /  14.6 °C 30.2 in /  1023.9 hPa NW 1 mph /  1.6 km/h 6 mph /  9.7 km/h 62 % 0 in /  0.0 mm
20:22 72 °F /  22.2 °C 58.3 °F /  14.6 °C 30.2 in /  1023.9 hPa NNW 1 mph /  1.6 km/h 6 mph /  9.7 km/h 62 % 0 in /  0.0 mm
20:27 72 °F /  22.2 °C 58.3 °F /  14.6 °C 30.2 in /  1023.9 hPa NNW 1 mph /  1.6 km/h 4 mph /  6.4 km/h 62 % 0 in /  0.0 mm
20:32 72 °F /  22.2 °C 57.7 °F /  14.3 °C 30.2 in /  1023.9 hPa NW 3 mph /  4.8 km/h 4 mph /  6.4 km/h 61 % 0 in /  0.0 mm
20:37 72 °F /  22.2 °C 58.3 °F /  14.6 °C 30.2 in /  1023.9 hPa NNW 2 mph /  3.2 km/h 5 mph /  8.0 km/h 62 % 0 in /  0.0 mm
20:42 71.2 °F /  21.8 °C 57.9 °F /  14.4 °C 30.3 in /  1024.3 hPa NW 1 mph /  1.6 km/h 5 mph /  8.0 km/h 63 % 0 in /  0.0 mm
20:47 70.5 °F /  21.4 °C 58.1 °F /  14.5 °C 30.3 in /  1024.3 hPa WNW 1 mph /  1.6 km/h 5 mph /  8.0 km/h 65 % 0 in /  0.0 mm
20:57 69.6 °F /  20.9 °C 58.1 °F /  14.5 °C 30.3 in /  1024.3 hPa NNW 3 mph /  4.8 km/h 3 mph /  4.8 km/h 67 % 0 in /  0.0 mm
21:02 69.1 °F /  20.6 °C 58.1 °F /  14.5 °C 30.3 in /  1024.3 hPa NNW 2 mph /  3.2 km/h 3 mph /  4.8 km/h 68 % 0 in /  0.0 mm
21:07 68.5 °F /  20.3 °C 57.9 °F /  14.4 °C 30.3 in /  1024.3 hPa NNW 1 mph /  1.6 km/h 4 mph /  6.4 km/h 69 % 0 in /  0.0 mm
21:12 68.2 °F /  20.1 °C 58.1 °F /  14.5 °C 30.3 in /  1024.3 hPa NNW 1 mph /  1.6 km/h 4 mph /  6.4 km/h 70 % 0 in /  0.0 mm
21:17 67.8 °F /  19.9 °C 58.1 °F /  14.5 °C 30.3 in /  1024.3 hPa Calm   3 mph /  4.8 km/h 71 % 0 in /  0.0 mm
21:22 67.5 °F /  19.7 °C 58.1 °F /  14.5 °C 30.3 in /  1024.3 hPa WNW 1 mph /  1.6 km/h 3 mph /  4.8 km/h 72 % 0 in /  0.0 mm
21:32 66.9 °F /  19.4 °C 57.6 °F /  14.2 °C 30.3 in /  1024.3 hPa Calm   2 mph /  3.2 km/h 72 % 0 in /  0.0 mm
21:37 66.7 °F /  19.3 °C 57.7 °F /  14.3 °C 30.3 in /  1024.3 hPa Calm   2 mph /  3.2 km/h 73 % 0 in /  0.0 mm
21:42 66.6 °F /  19.2 °C 58.1 °F /  14.5 °C 30.3 in /  1024.3 hPa NW 1 mph /  1.6 km/h 2 mph /  3.2 km/h 74 % 0 in /  0.0 mm
21:52 66 °F /  18.9 °C 57.9 °F /  14.4 °C 30.3 in /  1024.6 hPa Calm   2 mph /  3.2 km/h 75 % 0 in /  0.0 mm
21:57 65.7 °F /  18.7 °C 57.6 °F /  14.2 °C 30.3 in /  1024.6 hPa NW 1 mph /  1.6 km/h 2 mph /  3.2 km/h 75 % 0 in /  0.0 mm
22:02 65.5 °F /  18.6 °C 57.7 °F /  14.3 °C 30.3 in /  1024.6 hPa NW 2 mph /  3.2 km/h 2 mph /  3.2 km/h 76 % 0 in /  0.0 mm
22:07 65.1 °F /  18.4 °C 57.4 °F /  14.1 °C 30.3 in /  1024.6 hPa NW 1 mph /  1.6 km/h 3 mph /  4.8 km/h 76 % 0 in /  0.0 mm
22:12 64.9 °F /  18.3 °C 57.2 °F /  14.0 °C 30.3 in /  1024.6 hPa NW 1 mph /  1.6 km/h 3 mph /  4.8 km/h 76 % 0 in /  0.0 mm
22:17 64.8 °F /  18.2 °C 57.4 °F /  14.1 °C 30.3 in /  1024.9 hPa West 2 mph /  3.2 km/h 3 mph /  4.8 km/h 77 % 0 in /  0.0 mm
22:22 64.6 °F /  18.1 °C 57.2 °F /  14.0 °C 30.3 in /  1024.9 hPa WNW 1 mph /  1.6 km/h 3 mph /  4.8 km/h 77 % 0 in /  0.0 mm
22:32 64 °F /  17.8 °C 57 °F /  13.9 °C 30.3 in /  1024.9 hPa Calm   3 mph /  4.8 km/h 78 % 0 in /  0.0 mm
22:37 63.7 °F /  17.6 °C 56.7 °F /  13.7 °C 30.3 in /  1024.9 hPa Calm   3 mph /  4.8 km/h 78 % 0 in /  0.0 mm
22:42 63.3 °F /  17.4 °C 56.3 °F /  13.5 °C 30.3 in /  1024.9 hPa Calm   3 mph /  4.8 km/h 78 % 0 in /  0.0 mm
22:52 63.1 °F /  17.3 °C 56.5 °F /  13.6 °C 30.3 in /  1024.9 hPa Calm   2 mph /  3.2 km/h 79 % 0 in /  0.0 mm
22:57 63 °F /  17.2 °C 56.3 °F /  13.5 °C 30.3 in /  1024.9 hPa Calm   1 mph /  1.6 km/h 79 % 0 in /  0.0 mm
23:02 62.6 °F /  17.0 °C 55.9 °F /  13.3 °C 30.3 in /  1024.9 hPa Calm   1 mph /  1.6 km/h 79 % 0 in /  0.0 mm
23:12 62.2 °F /  16.8 °C 55.9 °F /  13.3 °C 30.3 in /  1024.9 hPa Calm     80 % 0 in /  0.0 mm
23:17 62.2 °F /  16.8 °C 55.9 °F /  13.3 °C 30.3 in /  1024.9 hPa Calm     80 % 0 in /  0.0 mm
23:22 62.1 °F /  16.7 °C 55.8 °F /  13.2 °C 30.3 in /  1024.9 hPa NW 2 mph /  3.2 km/h   80 % 0 in /  0.0 mm
23:32 62.1 °F /  16.7 °C 55.8 °F /  13.2 °C 30.3 in /  1024.9 hPa North 1 mph /  1.6 km/h 2 mph /  3.2 km/h 80 % 0 in /  0.0 mm
23:42 61.9 °F /  16.6 °C 55.6 °F /  13.1 °C 30.3 in /  1024.9 hPa NW 2 mph /  3.2 km/h 2 mph /  3.2 km/h 80 % 0 in /  0.0 mm
23:52 61.7 °F /  16.5 °C 55.4 °F /  13.0 °C 30.3 in /  1024.9 hPa WNW 1 mph /  1.6 km/h 2 mph /  3.2 km/h 80 % 0 in /  0.0 mm
23:57 61.5 °F /  16.4 °C 55.2 °F /  12.9 °C 30.3 in /  1024.9 hPa WNW 3 mph /  4.8 km/h 4 mph /  6.4 km/h 80 % 0 in /  0.0 mm
Meteo18
Compliments of Weather Underground - 4 mb

Script developed by  Jim McMurry - jmcmurry@mwt.net Adapted for the template by  Wim van der Kuil - Leuven-Template.eu

You find our weather info also at:

European Weather Network

Weather Underground

Equipment we use:

Weather-station
Davis Vue

Weather-program
Meteohub

Weather-server
Raspberry PI 2 B+

Provider
1 and 1

Davis Vue

Meteohub

Raspberry PI 2 B+

1 and 1